Terminal Aerodrome Forecast
Issued by NWS Quad Cities IA IL

Home | Current Version | Previous Version | Text Only | Print | Product List | Glossary On
Versions: 1 2 3 4 5 6 7 8 9 10 11 12 13 14 15 16 17 18 19 20 21 22 23 24
000
FTUS43 KDVN 171000 AAA
TAFDBQ
TAF AMD
KDBQ 171012Z 1710/1806 00000KT P6SM SKC
      TEMPO 1710/1714 3SM BR FEW002
     FM171400 06005KT 5SM BR OVC008
     FM171600 08006KT P6SM BKN015
     FM171800 10007KT P6SM SCT025 SCT250=

USA.gov is the U.S. government's official web portal to all federal, state and local government web resources and services.